ESSB

Stockholm-Bromma Airport

Stockholm, Sweden
METAR ESSB 211950Z 22004KT CAVOK M06/M07 Q1015 R30/19//59
Observed Flight Rules
Jan-21 @ 19:50 UTC (35 minutes ago) Visual Flight Rules
Wind Visibility Clouds
220° at 4 knots 10,000+ meters
  • Clear skies
Temperatures Readings
Current -6°C / 21°F
Dewpoint -7°C / 19°F
Humidity 93%
Altimeter 29.97" Hg
Pressure 1015 hPa
Elevation 11
METAR ESSB 211950Z 22004KT CAVOK M06/M07 Q1015 R30/19//59
Observed Flight Rules
Jan-21 @ 19:50 UTC
(35 minutes ago)
VFR
Wind Visibility
220° at 4 knots 10,000+ meters
Clouds
  • Clear skies
Temperature Dewpoint
-6°C / 21°F -7°C / 19°F
Humidity Altimeter Pressure
93% 29.97" Hg 1015 hPa